createdAt,value
2023-02-06T00:04:47.683Z,101816.19
2023-02-06T00:09:52.127Z,101816.28
2023-02-06T00:14:55.991Z,101821.50
2023-02-06T00:19:59.724Z,101815.59
2023-02-06T00:25:06.189Z,101809.53
2023-02-06T00:30:10.398Z,101804.34
2023-02-06T00:35:14.840Z,101797.78
2023-02-06T00:40:20.506Z,101796.03
2023-02-06T00:45:24.445Z,101798.53
2023-02-06T00:50:28.384Z,101788.63
2023-02-06T00:55:32.142Z,101785.28
2023-02-06T01:00:36.561Z,101781.81
2023-02-06T01:05:40.570Z,101794.31
2023-02-06T01:10:45.609Z,101775.88
2023-02-06T01:15:51.017Z,101792.22
2023-02-06T01:20:56.318Z,101792.09
2023-02-06T01:26:00.118Z,101786.78
2023-02-06T01:31:24.316Z,101781.19
2023-02-06T01:36:29.174Z,101782.31
2023-02-06T01:41:34.315Z,101775.50
2023-02-06T01:46:39.850Z,101779.81
2023-02-06T01:51:44.139Z,101757.09
2023-02-06T01:57:02.225Z,101778.72
2023-02-06T02:02:06.171Z,101770.31
2023-02-06T02:07:33.364Z,101769.22
2023-02-06T02:12:37.325Z,101779.47
2023-02-06T02:18:32.640Z,101762.28
2023-02-06T02:23:55.271Z,101760.44
2023-02-06T02:29:29.503Z,101750.06
2023-02-06T02:34:33.221Z,101760.06
2023-02-06T02:40:06.132Z,101760.16
2023-02-06T02:45:22.022Z,101758.63
2023-02-06T02:50:27.313Z,101756.84
2023-02-06T02:55:31.576Z,101763.34
2023-02-06T03:00:44.294Z,101758.22
2023-02-06T03:06:15.648Z,101750.31
2023-02-06T03:11:21.976Z,101739.28
2023-02-06T03:16:40.061Z,101748.72
2023-02-06T03:21:46.332Z,101750.41
2023-02-06T03:26:56.617Z,101743.97
2023-02-06T03:32:09.327Z,101735.19
2023-02-06T03:37:13.993Z,101744.69
2023-02-06T03:42:18.551Z,101725.16
2023-02-06T03:47:25.098Z,101710.84
2023-02-06T03:52:37.586Z,101716.50
2023-02-06T03:57:45.560Z,101706.88
2023-02-06T04:02:51.011Z,101697.25
2023-02-06T04:07:57.219Z,101720.94
2023-02-06T04:13:00.967Z,101703.56
2023-02-06T04:18:06.132Z,101702.19
2023-02-06T04:23:10.478Z,101696.72
2023-02-06T04:28:14.808Z,101687.66
2023-02-06T04:33:18.991Z,101687.03
2023-02-06T04:38:22.911Z,101668.78
2023-02-06T04:43:26.824Z,101679.16
2023-02-06T04:48:30.638Z,101662.13
2023-02-06T04:53:34.744Z,101661.66
2023-02-06T04:58:40.099Z,101655.53
2023-02-06T05:03:44.142Z,101648.06
2023-02-06T05:08:48.072Z,101636.97
2023-02-06T05:13:51.982Z,101639.84
2023-02-06T05:18:57.600Z,101626.22
2023-02-06T05:24:01.540Z,101635.16
2023-02-06T05:29:05.359Z,101637.75
2023-02-06T05:34:11.109Z,101557.91
2023-02-06T05:39:15.442Z,101628.13
2023-02-06T05:44:20.056Z,101622.84
2023-02-06T05:49:23.966Z,101623.44
2023-02-06T05:54:27.918Z,101608.69
2023-02-06T05:59:31.694Z,101553.66
2023-02-06T06:04:35.588Z,101510.72
2023-02-06T06:09:39.521Z,101601.03
2023-02-06T06:14:43.288Z,101523.00
2023-02-06T06:19:47.414Z,101584.31
2023-02-06T06:24:51.253Z,101589.75
2023-02-06T06:29:55.121Z,101587.53
2023-02-06T06:34:59.781Z,101572.72
2023-02-06T06:40:03.579Z,101576.47
2023-02-06T06:45:08.293Z,101572.47
2023-02-06T06:50:12.100Z,101561.00
2023-02-06T06:55:16.157Z,101558.81
2023-02-06T07:00:20.184Z,101554.84
2023-02-06T07:05:25.189Z,101549.00
2023-02-06T07:10:29.826Z,101561.25
2023-02-06T07:15:33.889Z,101579.16
2023-02-06T07:20:39.135Z,101557.25
2023-02-06T07:25:43.162Z,101530.09
2023-02-06T07:30:47.158Z,101549.88
2023-02-06T07:35:50.866Z,101543.25
2023-02-06T07:40:54.938Z,101545.91
2023-02-06T07:46:03.653Z,101553.69
2023-02-06T07:51:09.704Z,101534.34
2023-02-06T07:56:19.571Z,101524.16
2023-02-06T08:01:24.564Z,101534.59
2023-02-06T08:06:29.130Z,101529.59
2023-02-06T08:11:33.269Z,101499.91
2023-02-06T08:16:37.525Z,101524.69
2023-02-06T08:21:42.586Z,101505.41
2023-02-06T08:26:46.762Z,101512.22
2023-02-06T08:31:50.538Z,101500.28
2023-02-06T08:36:54.546Z,101508.00
2023-02-06T08:41:58.553Z,101515.63
2023-02-06T08:47:10.065Z,101498.66
2023-02-06T08:52:14.460Z,101499.56
2023-02-06T08:57:18.325Z,101511.47
2023-02-06T09:02:22.054Z,101513.16
2023-02-06T09:07:26.895Z,101513.22
2023-02-06T09:12:30.656Z,101512.38
2023-02-06T09:17:34.815Z,101512.38
2023-02-06T09:22:39.709Z,101508.97
2023-02-06T09:27:47.460Z,101464.69
2023-02-06T09:32:51.205Z,101494.56
2023-02-06T09:37:55.037Z,101476.75
2023-02-06T09:42:59.305Z,101469.13
2023-02-06T09:48:29.213Z,101458.06
2023-02-06T09:54:15.521Z,101457.19
2023-02-06T09:59:35.883Z,101450.38
2023-02-06T10:04:49.980Z,101435.97
2023-02-06T10:10:02.976Z,101433.38
2023-02-06T10:15:16.266Z,101423.97
2023-02-06T10:20:31.241Z,101418.00
2023-02-06T10:25:40.624Z,101419.66
2023-02-06T10:30:56.643Z,101411.94
2023-02-06T10:36:09.357Z,101410.19
2023-02-06T10:41:27.456Z,101416.09
2023-02-06T10:46:33.947Z,101408.41
2023-02-06T10:51:44.107Z,101409.22
2023-02-06T10:56:50.719Z,101405.72
2023-02-06T11:02:14.727Z,101385.22
2023-02-06T11:07:31.934Z,101381.75
2023-02-06T11:12:40.832Z,101382.50
2023-02-06T11:17:46.043Z,101362.97
2023-02-06T11:22:53.494Z,101367.13
2023-02-06T11:27:59.937Z,101361.16
2023-02-06T11:33:08.384Z,101371.34
2023-02-06T11:38:20.314Z,101383.16
2023-02-06T11:43:27.100Z,101397.88
2023-02-06T11:48:34.575Z,101422.91
2023-02-06T11:53:39.693Z,101421.19
2023-02-06T12:05:43.708Z,101421.19
2023-02-06T12:10:59.549Z,101421.09
2023-02-06T12:16:07.406Z,101404.91
2023-02-06T12:21:51.806Z,101428.50
2023-02-06T12:27:00.004Z,101328.63
2023-02-06T12:32:24.362Z,101409.34
2023-02-06T12:37:49.264Z,101403.31
2023-02-06T12:43:09.358Z,101411.63
2023-02-06T12:48:24.403Z,101399.66
2023-02-06T12:53:40.556Z,101396.88
2023-02-06T12:58:44.330Z,101397.72
2023-02-06T13:03:58.085Z,101392.41
2023-02-06T13:09:06.333Z,101397.31
2023-02-06T13:14:30.214Z,101398.72
2023-02-06T13:19:40.436Z,101391.72
2023-02-06T13:24:46.844Z,101376.19
2023-02-06T13:29:54.410Z,101375.31
2023-02-06T13:35:15.329Z,101371.84
2023-02-06T13:40:25.350Z,101375.81
2023-02-06T13:45:43.744Z,101368.06
2023-02-06T13:50:50.728Z,101366.25
2023-02-06T13:56:08.978Z,101365.19
2023-02-06T14:01:27.064Z,101386.25
2023-02-06T14:06:42.327Z,101374.22
2023-02-06T14:12:34.765Z,101374.88
2023-02-06T14:17:54.507Z,101374.66
2023-02-06T14:23:18.304Z,101376.09
2023-02-06T14:28:51.573Z,101366.59
2023-02-06T14:34:04.442Z,101355.31
2023-02-06T14:39:40.526Z,101369.66
2023-02-06T14:44:47.698Z,101377.97
2023-02-06T14:49:52.543Z,101386.13
2023-02-06T14:54:56.846Z,101383.31
2023-02-06T15:00:19.483Z,101376.97
2023-02-06T15:05:29.362Z,101331.94
2023-02-06T15:10:38.634Z,101369.94
2023-02-06T15:15:55.498Z,101371.34
2023-02-06T15:21:04.104Z,101360.19
2023-02-06T15:26:28.311Z,101363.97
2023-02-06T15:31:33.047Z,101337.03
2023-02-06T15:36:40.741Z,101309.63
2023-02-06T15:41:49.382Z,101345.38
2023-02-06T15:46:56.968Z,101351.00
2023-02-06T15:52:02.808Z,101347.44
2023-02-06T15:57:21.123Z,101337.56
2023-02-06T16:02:35.615Z,101343.84
2023-02-06T16:07:39.630Z,101334.59
2023-02-06T16:12:44.410Z,101326.41
2023-02-06T16:17:48.635Z,101323.66
2023-02-06T16:22:57.701Z,101334.66
2023-02-06T16:28:01.773Z,101324.84
2023-02-06T16:33:33.175Z,101331.91
2023-02-06T16:38:37.867Z,101326.19
2023-02-06T16:43:42.297Z,101341.50
2023-02-06T16:48:46.153Z,101321.81
2023-02-06T16:53:50.688Z,101324.91
2023-02-06T16:58:54.499Z,101324.13
2023-02-06T17:03:58.352Z,101336.13
2023-02-06T17:09:07.508Z,101328.03
2023-02-06T17:14:12.343Z,101329.25
2023-02-06T17:19:16.516Z,101310.31
2023-02-06T17:24:22.143Z,101303.41
2023-02-06T17:29:25.964Z,101293.28
2023-02-06T17:34:31.015Z,101301.88
2023-02-06T17:39:36.128Z,101311.72
2023-02-06T17:44:42.480Z,101307.53
2023-02-06T17:49:47.714Z,101298.03
2023-02-06T17:54:51.712Z,101280.16
2023-02-06T17:59:55.580Z,101295.94
2023-02-06T18:05:00.845Z,101304.72
2023-02-06T18:10:07.741Z,101302.34
2023-02-06T18:15:14.321Z,101302.88
2023-02-06T18:20:18.649Z,101309.06
2023-02-06T18:25:22.396Z,101310.34
2023-02-06T18:30:26.516Z,101314.16
2023-02-06T18:35:30.518Z,101297.06
2023-02-06T18:40:34.539Z,101297.28
2023-02-06T18:45:40.376Z,101295.44
2023-02-06T18:50:44.176Z,101291.31
2023-02-06T18:55:59.483Z,101278.81
2023-02-06T19:01:03.340Z,101266.09
2023-02-06T19:06:19.636Z,101276.84
2023-02-06T19:11:23.344Z,101275.59
2023-02-06T19:16:29.879Z,101255.94
2023-02-06T19:21:34.135Z,101263.09
2023-02-06T19:26:39.600Z,101260.81
2023-02-06T19:31:43.339Z,101256.97
2023-02-06T19:36:48.140Z,101220.56
2023-02-06T19:41:51.949Z,101245.56
2023-02-06T19:46:56.585Z,101240.88
2023-02-06T19:52:02.057Z,101249.75
2023-02-06T19:57:05.836Z,101235.50
2023-02-06T20:02:14.105Z,101246.06
2023-02-06T20:07:17.998Z,101244.09
2023-02-06T20:12:21.671Z,101239.03
2023-02-06T20:17:27.945Z,101246.59
2023-02-06T20:22:31.924Z,101242.41
2023-02-06T20:27:35.875Z,101232.38
2023-02-06T20:32:39.740Z,101242.72
2023-02-06T20:37:43.475Z,101191.34
2023-02-06T20:42:47.556Z,101213.78
2023-02-06T20:47:51.289Z,101225.13
2023-02-06T20:52:55.126Z,101220.22
2023-02-06T20:57:59.118Z,101218.78
2023-02-06T21:03:02.931Z,101212.03
2023-02-06T21:08:06.812Z,101209.22
2023-02-06T21:13:10.641Z,101200.66
2023-02-06T21:18:14.277Z,101196.69
2023-02-06T21:23:19.774Z,101185.38
2023-02-06T21:28:23.731Z,101192.06
2023-02-06T21:33:27.919Z,101188.31
2023-02-06T21:38:31.545Z,101173.66
2023-02-06T21:43:35.985Z,101174.00
2023-02-06T21:48:41.344Z,101168.56
2023-02-06T21:53:46.350Z,101174.34
2023-02-06T21:58:50.788Z,101172.50
2023-02-06T22:03:55.471Z,101184.97
2023-02-06T22:09:05.886Z,101128.34
2023-02-06T22:14:17.215Z,101189.72
2023-02-06T22:19:21.842Z,101171.97
2023-02-06T22:24:25.747Z,101187.72
2023-02-06T22:29:30.861Z,101179.28
2023-02-06T22:34:34.679Z,101187.75
2023-02-06T22:39:40.068Z,101086.66
2023-02-06T22:44:43.819Z,101172.00
2023-02-06T22:49:47.708Z,101165.97
2023-02-06T22:54:51.483Z,101160.91
2023-02-06T22:59:56.324Z,101169.91
2023-02-06T23:05:00.215Z,101179.69
2023-02-06T23:10:04.618Z,101156.59
2023-02-06T23:15:08.900Z,101162.03
2023-02-06T23:20:13.038Z,101171.44
2023-02-06T23:25:18.375Z,101168.16
2023-02-06T23:30:22.529Z,101143.03
2023-02-06T23:35:28.020Z,101066.63
2023-02-06T23:40:32.144Z,101152.38
2023-02-06T23:45:36.470Z,101157.66
2023-02-06T23:50:40.780Z,101134.41
2023-02-06T23:55:44.675Z,101157.91
